Time;durP1;ratioP1;P1;durP2;ratioP2;P2;SDS_P1;SDS_P2;PMS_P1;PMS_P2;Temp;Humidity;BMP_temperature;BMP_pressure;BME280_temperature;BME280_humidity;BME280_pressure;Samples;Min_cycle;Max_cycle;Signal;HPM_P1;HPM_P2
2022/06/03 00:00:24;;;;;;;14.10;8.13;;;;;;;13.56;83.70;101929.28;5015458;28;20044;-45
2022/06/03 00:03:28;;;;;;;15.10;8.25;;;;;;;13.57;82.99;101930.97;5016183;28;20099;-47
2022/06/03 00:06:17;;;;;;;12.88;8.38;;;;;;;13.55;83.03;101928.44;4975355;28;20037;-44
2022/06/03 00:09:04;;;;;;;13.75;8.23;;;;;;;13.54;83.87;101926.78;5015142;28;20044;-44
2022/06/03 00:11:41;;;;;;;14.05;8.57;;;;;;;13.49;84.20;101925.53;5014504;28;20063;-47
2022/06/03 00:14:35;;;;;;;17.02;8.13;;;;;;;13.48;83.75;101924.69;5016032;28;20076;-43
2022/06/03 00:17:32;;;;;;;14.55;8.65;;;;;;;13.46;82.91;101923.16;5015888;28;20156;-45
2022/06/03 00:20:34;;;;;;;11.70;8.32;;;;;;;13.39;83.95;101921.09;5019686;28;20018;-41
2022/06/03 00:23:06;;;;;;;16.23;8.65;;;;;;;13.35;84.63;101918.88;5018356;28;20395;-44
2022/06/03 00:25:43;;;;;;;19.95;8.75;;;;;;;13.30;84.44;101924.66;5019962;28;20103;-43
2022/06/03 00:28:14;;;;;;;12.02;8.32;;;;;;;13.26;86.23;101920.59;5018884;28;20056;-43
2022/06/03 00:31:05;;;;;;;14.93;8.57;;;;;;;13.24;84.76;101918.06;5019711;28;20060;-45
2022/06/03 00:33:48;;;;;;;12.07;7.93;;;;;;;13.23;85.12;101927.09;5019165;28;20036;-46
2022/06/03 00:36:19;;;;;;;12.20;8.73;;;;;;;13.22;85.33;101924.56;5019663;28;20029;-45
2022/06/03 00:38:44;;;;;;;15.52;8.52;;;;;;;13.21;86.03;101921.03;5018660;28;20475;-45
2022/06/03 00:41:13;;;;;;;12.83;8.17;;;;;;;13.24;86.60;101919.91;5018075;28;20033;-44
2022/06/03 00:44:15;;;;;;;15.32;8.82;;;;;;;13.20;85.88;101915.81;5010423;28;20326;-44
2022/06/03 00:47:14;;;;;;;12.95;8.50;;;;;;;13.15;85.20;101910.06;5019452;28;20288;-44
2022/06/03 00:49:49;;;;;;;11.27;8.60;;;;;;;13.13;86.16;101914.75;5018104;28;20387;-44
2022/06/03 00:52:36;;;;;;;17.42;8.55;;;;;;;13.07;86.06;101914.38;5019064;28;20037;-42
2022/06/03 00:55:07;;;;;;;14.23;8.55;;;;;;;13.04;86.83;101917.34;5018286;28;20067;-45
2022/06/03 00:58:07;;;;;;;14.23;9.02;;;;;;;13.05;85.54;101908.31;5019220;28;20037;-44
2022/06/03 01:00:50;;;;;;;14.60;8.95;;;;;;;13.02;87.13;101913.97;4974989;28;20704;-43
2022/06/03 01:03:50;;;;;;;12.40;8.48;;;;;;;13.02;86.95;101905.94;5018888;28;20025;-45
2022/06/03 01:06:33;;;;;;;12.85;8.38;;;;;;;13.02;86.45;101902.41;5018367;28;20124;-47
2022/06/03 01:09:05;;;;;;;12.38;8.45;;;;;;;12.97;87.24;101900.19;5017214;28;20512;-43
2022/06/03 01:12:02;;;;;;;15.40;9.00;;;;;;;12.97;86.89;101900.19;5017550;28;20048;-45
2022/06/03 01:14:41;;;;;;;13.65;9.23;;;;;;;12.91;88.51;101897.25;5024363;28;20021;-48
2022/06/03 01:17:11;;;;;;;15.07;8.45;;;;;;;12.90;88.45;101895.56;5036390;28;20490;-44
2022/06/03 01:19:45;;;;;;;18.88;8.82;;;;;;;12.92;87.82;101901.63;5037669;28;20037;-43
2022/06/03 01:22:22;;;;;;;12.45;8.57;;;;;;;12.91;87.74;101892.72;5038309;28;20040;-47
2022/06/03 01:25:18;;;;;;;14.27;8.60;;;;;;;12.96;87.31;101898.47;5039095;28;20040;-46
2022/06/03 01:27:56;;;;;;;10.85;8.50;;;;;;;12.93;87.85;101882.69;5037925;28;20053;-44
2022/06/03 01:30:39;;;;;;;14.13;8.50;;;;;;;12.94;87.13;101889.75;5020209;28;20135;-45
2022/06/03 01:33:39;;;;;;;15.43;8.80;;;;;;;12.90;88.04;101890.19;5032602;28;20340;-43
2022/06/03 01:36:28;;;;;;;11.27;8.18;;;;;;;12.90;88.27;101885.69;5038471;28;20028;-47
2022/06/03 01:39:19;;;;;;;11.90;8.63;;;;;;;12.90;88.15;101885.69;5036996;28;20382;-44
2022/06/03 01:42:15;;;;;;;12.40;8.52;;;;;;;12.88;87.70;101887.66;5038497;28;20115;-46
2022/06/03 01:45:22;;;;;;;15.80;8.65;;;;;;;12.80;88.65;101888.44;5038614;28;20033;-43
2022/06/03 01:48:02;;;;;;;15.50;8.57;;;;;;;12.80;89.77;101880.38;5017922;28;20108;-45
2022/06/03 01:50:38;;;;;;;16.95;8.93;;;;;;;12.79;89.66;101873.31;5038088;28;20189;-47
2022/06/03 01:53:22;;;;;;;13.82;8.63;;;;;;;12.78;90.59;101865.44;5035238;28;20408;-46
2022/06/03 01:56:50;;;;;;;17.60;9.10;;;;;;;12.76;88.88;101862.91;5038051;28;20506;-46
2022/06/03 01:59:42;;;;;;;16.88;9.15;;;;;;;12.70;90.72;101874.25;4985838;28;20038;-46
2022/06/03 02:02:25;;;;;;;15.80;9.00;;;;;;;12.63;90.89;101867.78;4985385;28;20026;-44
2022/06/03 02:05:25;;;;;;;22.40;9.38;;;;;;;12.62;90.34;101868.78;5034971;28;20041;-43
2022/06/03 02:08:08;;;;;;;16.27;10.07;;;;;;;12.54;91.28;101869.50;5036651;28;20132;-42
2022/06/03 02:11:08;;;;;;;12.30;8.93;;;;;;;12.48;91.24;101868.28;5028022;28;20480;-42
2022/06/03 02:14:27;;;;;;;14.45;9.75;;;;;;;12.46;90.58;101872.13;5038055;28;20040;-44
2022/06/03 02:17:37;;;;;;;12.80;9.45;;;;;;;12.41;90.64;101861.84;4995107;28;20408;-47
2022/06/03 02:20:39;;;;;;;12.25;9.70;;;;;;;12.37;92.01;101859.59;4973790;28;20523;-46
2022/06/03 02:23:21;;;;;;;15.57;9.50;;;;;;;12.29;93.42;101854.97;4973648;28;20598;-45
2022/06/03 02:25:52;;;;;;;13.32;9.68;;;;;;;12.26;93.42;101857.94;5029005;28;20550;-44
2022/06/03 02:28:26;;;;;;;14.63;10.00;;;;;;;12.21;93.38;101861.06;5009770;28;20053;-45
2022/06/03 02:31:05;;;;;;;13.18;9.18;;;;;;;12.22;93.35;101860.09;5032077;28;20467;-43
2022/06/03 02:33:33;;;;;;;13.20;9.63;;;;;;;12.20;94.14;101854.00;5023577;28;20020;-45
2022/06/03 02:36:36;;;;;;;14.55;9.15;;;;;;;12.20;93.77;101847.81;5037038;28;20048;-46
2022/06/03 02:39:25;;;;;;;15.63;9.77;;;;;;;12.18;93.21;101847.13;5016325;28;20025;-42
2022/06/03 02:41:58;;;;;;;16.02;9.55;;;;;;;12.21;94.33;101849.50;5036992;28;20033;-43
2022/06/03 02:44:48;;;;;;;15.50;10.68;;;;;;;12.15;94.38;101844.72;5036885;28;20063;-43
2022/06/03 02:47:41;;;;;;;12.63;9.73;;;;;;;12.12;94.07;101838.69;5037531;28;20108;-42
2022/06/03 02:50:21;;;;;;;14.73;10.27;;;;;;;12.11;94.70;101844.19;5035800;28;20052;-44
2022/06/03 02:53:13;;;;;;;19.52;10.27;;;;;;;12.07;94.33;101835.59;5035732;28;20052;-43
2022/06/03 02:55:44;;;;;;;15.50;9.95;;;;;;;12.06;94.61;101830.41;5037032;28;20523;-42
2022/06/03 02:58:18;;;;;;;15.55;10.25;;;;;;;12.04;94.46;101829.72;5036995;28;20067;-44
2022/06/03 03:01:02;;;;;;;13.30;9.73;;;;;;;12.03;94.81;101836.03;5037264;28;20377;-42
2022/06/03 03:03:57;;;;;;;13.57;10.07;;;;;;;12.04;94.80;101835.91;5036105;28;20472;-47
2022/06/03 03:06:55;;;;;;;14.07;10.15;;;;;;;11.97;94.85;101828.63;5036319;28;20036;-44
2022/06/03 03:09:35;;;;;;;21.15;9.95;;;;;;;11.96;94.83;101834.94;4990731;28;20044;-44
2022/06/03 03:12:37;;;;;;;15.45;10.48;;;;;;;11.93;95.06;101844.97;5028870;28;20034;-46
2022/06/03 03:15:11;;;;;;;17.63;10.60;;;;;;;11.91;95.49;101838.03;5036197;28;20033;-48
2022/06/03 03:17:53;;;;;;;18.30;10.93;;;;;;;11.87;95.79;101842.81;5036372;28;20138;-45
2022/06/03 03:20:37;;;;;;;18.27;10.90;;;;;;;11.88;96.21;101851.69;5036606;28;20025;-44
2022/06/03 03:23:34;;;;;;;19.55;10.85;;;;;;;11.85;96.47;101838.63;5035528;28;20063;-46
2022/06/03 03:26:18;;;;;;;16.85;10.52;;;;;;;11.82;97.04;101833.53;5035914;28;20028;-45
2022/06/03 03:29:21;;;;;;;17.83;10.88;;;;;;;11.80;96.35;101831.00;5036946;28;20144;-42
2022/06/03 03:31:55;;;;;;;15.65;10.82;;;;;;;11.76;96.96;101824.25;4998224;28;20126;-43
2022/06/03 03:34:42;;;;;;;16.00;11.65;;;;;;;11.74;97.43;101828.91;5036642;28;20028;-47
2022/06/03 03:37:27;;;;;;;17.13;10.75;;;;;;;11.75;97.15;101826.09;5012873;28;20065;-44
2022/06/03 03:40:25;;;;;;;14.27;10.82;;;;;;;11.77;96.35;101820.59;4990572;28;20033;-44
2022/06/03 03:42:53;;;;;;;20.65;10.98;;;;;;;11.68;97.74;101813.44;5023454;28;20061;-44
2022/06/03 03:46:01;;;;;;;16.33;10.43;;;;;;;11.74;97.22;101813.72;5012848;28;20028;-44
2022/06/03 03:49:05;;;;;;;17.63;11.18;;;;;;;11.72;96.90;101817.50;5032757;28;20420;-43
2022/06/03 03:51:45;;;;;;;16.05;10.75;;;;;;;11.71;97.68;101815.81;5035925;28;20033;-44
2022/06/03 03:54:19;;;;;;;18.20;11.40;;;;;;;11.69;98.01;101818.66;5039164;28;20099;-46
2022/06/03 03:56:59;;;;;;;16.17;11.52;;;;;;;11.66;98.06;101813.59;5040272;28;20036;-43
2022/06/03 03:59:34;;;;;;;17.58;11.90;;;;;;;11.66;98.00;101810.91;5039504;28;20041;-44
2022/06/03 04:02:21;;;;;;;25.75;11.55;;;;;;;11.67;98.37;101814.41;5029092;28;20472;-46
2022/06/03 04:05:11;;;;;;;18.67;12.00;;;;;;;11.69;98.35;101815.13;5025696;28;20545;-45
2022/06/03 04:07:41;;;;;;;18.95;12.00;;;;;;;11.69;98.26;101818.66;5037958;28;20556;-44
2022/06/03 04:10:58;;;;;;;18.65;11.60;;;;;;;11.73;97.59;101808.50;5023664;28;20037;-44
2022/06/03 04:13:29;;;;;;;18.63;11.32;;;;;;;11.75;98.53;101799.31;4996889;28;20041;-43
2022/06/03 04:16:16;;;;;;;20.05;12.05;;;;;;;11.74;97.15;101807.50;5019343;28;20047;-44
2022/06/03 04:19:18;;;;;;;20.00;11.65;;;;;;;11.75;97.23;101804.69;5014740;28;20025;-44
2022/06/03 04:22:24;;;;;;;19.55;11.48;;;;;;;11.80;97.30;101804.25;5015827;28;20021;-42
2022/06/03 04:25:17;;;;;;;17.88;11.90;;;;;;;11.84;96.83;101804.81;5040276;28;20037;-44
2022/06/03 04:27:48;;;;;;;18.13;11.68;;;;;;;11.87;97.91;101804.50;5029871;28;20045;-43
2022/06/03 04:30:28;;;;;;;18.52;11.50;;;;;;;11.89;97.66;101800.69;5028646;28;20128;-44
2022/06/03 04:33:33;;;;;;;16.33;11.23;;;;;;;11.92;96.91;101803.09;5022345;28;20392;-45
2022/06/03 04:36:48;;;;;;;16.35;10.73;;;;;;;11.97;96.69;101804.53;4996236;28;20156;-44
2022/06/03 04:39:43;;;;;;;16.70;11.43;;;;;;;12.02;97.05;101792.38;5019760;28;20479;-44
2022/06/03 04:42:42;;;;;;;19.08;11.70;;;;;;;12.04;97.63;101802.94;5028386;28;20147;-43
2022/06/03 04:45:29;;;;;;;21.38;12.05;;;;;;;12.03;97.61;101796.75;5019686;28;20036;-45
2022/06/03 04:48:43;;;;;;;20.02;13.05;;;;;;;12.10;96.72;101799.66;5025361;28;20518;-42
2022/06/03 04:51:46;;;;;;;18.17;12.23;;;;;;;12.18;96.38;101809.63;5020377;28;20461;-43
2022/06/03 04:54:53;;;;;;;21.92;11.93;;;;;;;12.23;96.60;101805.50;5011882;28;20048;-45
2022/06/03 04:57:50;;;;;;;17.52;11.93;;;;;;;12.31;96.02;101804.78;5015490;28;20058;-44
2022/06/03 05:00:42;;;;;;;18.35;11.75;;;;;;;12.33;96.14;101818.88;5019179;28;20049;-43
2022/06/03 05:03:34;;;;;;;19.13;12.38;;;;;;;12.36;96.83;101809.69;5032387;28;20181;-43
2022/06/03 05:06:32;;;;;;;21.40;12.35;;;;;;;12.43;96.51;101816.97;5034815;28;20926;-44
2022/06/03 05:09:29;;;;;;;20.02;12.40;;;;;;;12.52;96.49;101817.06;5033617;28;20519;-44
2022/06/03 05:12:13;;;;;;;22.60;12.60;;;;;;;12.57;96.59;101812.09;4987589;28;20041;-44
2022/06/03 05:14:59;;;;;;;19.00;12.90;;;;;;;12.60;96.40;101817.16;5021476;28;20494;-42
2022/06/03 05:17:47;;;;;;;19.27;13.23;;;;;;;12.67;96.32;101807.53;5017488;28;20381;-47
2022/06/03 05:20:30;;;;;;;24.80;12.88;;;;;;;12.76;96.90;101811.13;5033380;28;20033;-45
2022/06/03 05:23:14;;;;;;;15.88;12.50;;;;;;;12.84;96.39;101811.22;5034434;28;20037;-44
2022/06/03 05:26:08;;;;;;;19.05;13.15;;;;;;;12.91;95.57;101814.97;5024056;28;20033;-42
2022/06/03 05:28:58;;;;;;;18.50;13.20;;;;;;;13.00;95.22;101807.84;5015195;28;20064;-48
2022/06/03 05:31:51;;;;;;;16.27;12.70;;;;;;;13.08;94.09;101805.25;5019085;28;20455;-45
2022/06/03 05:34:51;;;;;;;24.10;14.48;;;;;;;13.13;94.64;101804.78;5031533;28;20112;-46
2022/06/03 05:37:40;;;;;;;23.13;13.40;;;;;;;13.18;94.10;101797.13;5026277;28;20650;-44
2022/06/03 05:40:24;;;;;;;22.00;13.00;;;;;;;13.19;93.90;101794.28;5029919;28;20657;-43
2022/06/03 05:43:17;;;;;;;23.77;14.13;;;;;;;13.30;93.10;101797.72;5017689;28;20091;-44
2022/06/03 05:45:51;;;;;;;23.60;13.90;;;;;;;13.34;93.16;101799.97;5018732;28;20075;-43
2022/06/03 05:48:19;;;;;;;25.05;13.80;;;;;;;13.38;93.10;101793.28;5017756;28;20112;-45
2022/06/03 05:50:55;;;;;;;18.40;13.40;;;;;;;13.47;92.76;101807.59;5018248;28;20033;-43
2022/06/03 05:53:40;;;;;;;19.80;13.65;;;;;;;13.57;92.32;101804.81;5016372;28;20051;-42
2022/06/03 05:56:32;;;;;;;21.38;13.77;;;;;;;13.67;91.61;101800.19;5009212;28;20464;-45
2022/06/03 05:59:34;;;;;;;24.05;13.35;;;;;;;13.77;91.32;101797.41;5016947;28;20076;-43
2022/06/03 06:02:21;;;;;;;21.38;13.85;;;;;;;13.90;91.03;101803.19;5017342;28;20471;-45
2022/06/03 06:05:02;;;;;;;21.40;13.73;;;;;;;14.00;90.26;101797.69;5018408;28;20029;-44
2022/06/03 06:07:32;;;;;;;22.27;13.50;;;;;;;14.14;90.17;101801.63;5026749;28;20068;-47
2022/06/03 06:10:28;;;;;;;29.33;14.73;;;;;;;14.26;89.73;101803.03;5017871;28;20029;-46
2022/06/03 06:13:35;;;;;;;21.27;12.95;;;;;;;14.39;88.80;101810.59;5007366;28;20395;-47
2022/06/03 06:16:09;;;;;;;23.40;13.25;;;;;;;14.54;87.58;101808.16;5017395;28;20029;-44
2022/06/03 06:18:49;;;;;;;19.33;12.20;;;;;;;14.67;87.74;101805.88;5017420;28;20625;-43
2022/06/03 06:21:32;;;;;;;19.65;12.45;;;;;;;14.81;86.19;101809.75;5035577;28;20286;-44
2022/06/03 06:24:09;;;;;;;17.60;12.38;;;;;;;14.91;86.03;101813.13;5035591;28;20944;-48
2022/06/03 06:26:41;;;;;;;18.30;12.57;;;;;;;14.99;85.87;101812.31;5008891;28;20017;-46
2022/06/03 06:29:24;;;;;;;;;;;;;;;15.15;85.78;101811.47;5030693;28;20024;-43
2022/06/03 06:32:29;;;;;;;17.70;12.55;;;;;;;15.26;84.79;101807.63;5012097;28;20374;-45
2022/06/03 06:35:46;;;;;;;18.27;11.55;;;;;;;15.38;84.15;101813.50;5036157;28;20028;-47
2022/06/03 06:38:47;;;;;;;18.15;11.48;;;;;;;15.55;83.34;101808.94;5035585;28;20025;-47
2022/06/03 06:41:31;;;;;;;16.80;11.38;;;;;;;15.63;81.86;101803.53;5037983;28;20032;-46
2022/06/03 06:44:09;;;;;;;15.43;11.00;;;;;;;15.79;81.70;101803.53;5036484;28;20079;-45
2022/06/03 06:46:57;;;;;;;20.92;10.68;;;;;;;15.92;81.15;101800.31;5036896;28;20017;-45
2022/06/03 06:49:36;;;;;;;17.38;11.40;;;;;;;16.05;81.67;101802.44;5036697;28;20025;-45
2022/06/03 06:52:18;;;;;;;18.30;10.73;;;;;;;16.19;80.16;101801.72;5035778;28;20062;-45
2022/06/03 06:54:57;;;;;;;16.15;10.93;;;;;;;16.33;78.92;101807.41;5033184;28;20200;-41
2022/06/03 06:57:32;;;;;;;16.85;10.70;;;;;;;16.49;79.10;101818.09;5008759;28;20035;-44
2022/06/03 07:00:32;;;;;;;20.58;11.80;;;;;;;16.71;78.98;101815.63;5032614;28;20026;-42
2022/06/03 07:03:07;;;;;;;16.35;11.05;;;;;;;16.76;77.09;101816.75;5028175;28;20151;-42
2022/06/03 07:05:43;;;;;;;22.00;11.45;;;;;;;16.90;76.98;101806.25;5036563;28;20032;-46
2022/06/03 07:08:26;;;;;;;15.63;11.40;;;;;;;17.01;76.13;101803.16;5036054;28;20115;-47
2022/06/03 07:10:59;;;;;;;17.20;10.55;;;;;;;17.13;74.69;101806.25;5009808;28;20048;-44
2022/06/03 07:13:28;;;;;;;19.92;11.10;;;;;;;17.27;75.21;101807.31;5036832;28;20147;-45
2022/06/03 07:16:14;;;;;;;18.40;11.45;;;;;;;17.49;75.13;101811.00;5036121;28;20016;-46
2022/06/03 07:22:05;;;;;;;16.17;11.00;;;;;;;17.77;75.36;101807.69;5012200;28;20095;-44
2022/06/03 07:24:49;;;;;;;17.88;11.35;;;;;;;17.76;72.18;101809.56;5036094;28;20112;-45
2022/06/03 07:27:50;;;;;;;17.38;11.10;;;;;;;17.78;72.77;101799.41;5028764;28;20049;-44
2022/06/03 07:30:22;;;;;;;18.20;11.93;;;;;;;17.77;72.79;101797.75;5021541;28;20891;-43
2022/06/03 07:32:56;;;;;;;16.95;10.88;;;;;;;17.84;71.92;101793.25;5036085;28;20104;-46
2022/06/03 07:35:27;;;;;;;16.52;11.38;;;;;;;17.87;71.78;101786.66;5036818;28;20048;-44
2022/06/03 07:38:19;;;;;;;19.05;11.52;;;;;;;17.97;72.56;101791.78;5034803;28;20056;-43
2022/06/03 07:40:52;;;;;;;17.58;11.25;;;;;;;18.14;75.17;101787.84;5037009;28;20384;-47
2022/06/03 07:43:20;;;;;;;15.82;11.00;;;;;;;18.27;71.86;101798.84;5034428;28;20037;-46
2022/06/03 07:45:55;;;;;;;16.73;11.60;;;;;;;18.47;71.39;101798.25;5035625;28;20056;-44
2022/06/03 07:48:22;;;;;;;15.07;10.52;;;;;;;18.63;70.62;101794.47;5030338;28;20047;-46
2022/06/03 07:50:55;;;;;;;15.88;11.50;;;;;;;18.72;69.34;101795.19;5036207;28;20021;-45
2022/06/03 07:53:45;;;;;;;16.50;11.40;;;;;;;18.81;70.55;101800.28;5035235;28;20064;-47
2022/06/03 07:56:17;;;;;;;14.65;10.70;;;;;;;18.95;69.01;101793.16;5037260;28;20037;-44
2022/06/03 07:58:54;;;;;;;18.02;10.77;;;;;;;19.00;69.21;101777.19;5027859;28;20082;-44
2022/06/03 08:01:26;;;;;;;17.10;9.80;;;;;;;19.12;67.16;101785.63;5035320;28;20058;-44
2022/06/03 08:03:52;;;;;;;15.70;9.60;;;;;;;19.20;68.26;101780.06;5035939;28;20033;-46
2022/06/03 08:12:12;;;;;;;18.48;10.00;;;;;;;19.64;66.50;101771.88;5036553;28;20120;-48
2022/06/03 08:14:37;;;;;;;14.93;10.13;;;;;;;19.73;65.05;101776.06;5035689;28;20040;-49
2022/06/03 08:17:06;;;;;;;15.25;10.10;;;;;;;19.74;63.11;101759.66;5014458;28;20676;-45
2022/06/03 08:19:34;;;;;;;20.02;10.73;;;;;;;19.92;67.64;101761.84;5030951;28;20667;-45
2022/06/03 08:22:03;;;;;;;16.92;10.90;;;;;;;20.05;71.44;101757.50;5034422;28;20521;-46
2022/06/03 08:24:32;;;;;;;18.25;11.05;;;;;;;20.17;66.51;101758.59;5031762;28;20033;-47
2022/06/03 08:27:03;;;;;;;16.08;10.25;;;;;;;20.14;64.86;101748.16;5031401;28;20045;-43
2022/06/03 08:29:41;;;;;;;20.92;10.18;;;;;;;20.22;67.68;101739.00;5030767;28;20368;-43
2022/06/03 08:32:11;;;;;;;13.57;9.98;;;;;;;20.38;66.60;101751.38;5035251;28;20021;-45
2022/06/03 08:34:43;;;;;;;18.17;10.10;;;;;;;20.40;61.92;101754.69;5035499;28;20033;-45
2022/06/03 08:37:15;;;;;;;14.30;10.13;;;;;;;20.38;62.94;101754.91;5035027;28;20451;-43
2022/06/03 08:39:42;;;;;;;18.42;9.95;;;;;;;20.47;63.54;101748.28;5039590;28;20089;-47
2022/06/03 08:42:27;;;;;;;13.57;9.15;;;;;;;20.64;62.78;101745.22;5039020;28;20021;-44
2022/06/03 08:45:03;;;;;;;17.90;9.07;;;;;;;20.86;62.64;101748.59;5038905;28;20029;-46
2022/06/03 08:47:37;;;;;;;14.30;9.32;;;;;;;20.90;59.58;101749.81;5035665;28;20127;-45
2022/06/03 08:50:26;;;;;;;12.23;8.75;;;;;;;20.88;61.35;101746.50;5036111;28;20089;-48
2022/06/03 08:53:14;;;;;;;20.63;8.45;;;;;;;20.79;61.65;101742.28;5038119;28;20021;-46
2022/06/03 08:55:54;;;;;;;16.17;8.50;;;;;;;20.72;59.05;101752.31;5014958;28;20494;-48
2022/06/03 08:58:26;;;;;;;11.10;7.70;;;;;;;20.88;58.56;101749.22;5021178;28;20030;-43
2022/06/03 09:00:58;;;;;;;10.68;7.38;;;;;;;21.08;59.61;101756.50;5037807;28;20033;-43
2022/06/03 09:03:26;;;;;;;12.70;8.52;;;;;;;21.15;58.40;101749.22;5038270;28;20043;-47
2022/06/03 09:05:59;;;;;;;13.10;8.40;;;;;;;21.33;58.14;101754.00;5038875;28;20017;-46
2022/06/03 09:08:32;;;;;;;13.00;8.13;;;;;;;21.53;59.27;101760.28;5038695;28;20062;-46
2022/06/03 09:11:15;;;;;;;11.05;8.35;;;;;;;21.68;58.68;101754.59;5037924;28;20570;-45
2022/06/03 09:13:55;;;;;;;10.05;7.22;;;;;;;21.82;58.92;101755.41;5039323;28;20028;-45
2022/06/03 09:16:25;;;;;;;9.40;7.03;;;;;;;21.99;59.12;101755.75;5038799;28;20428;-50
2022/06/03 09:19:01;;;;;;;10.38;6.95;;;;;;;22.03;56.32;101761.59;5037680;28;20029;-49
2022/06/03 09:21:33;;;;;;;10.38;7.10;;;;;;;22.10;54.73;101748.81;5037546;28;20029;-48
2022/06/03 09:24:10;;;;;;;14.43;6.80;;;;;;;22.23;53.85;101753.34;5038219;28;20578;-49
2022/06/03 09:26:39;;;;;;;11.20;6.47;;;;;;;22.39;54.81;101743.91;5035220;28;20099;-48
2022/06/03 09:29:09;;;;;;;11.45;6.00;;;;;;;22.48;51.92;101746.13;5022939;28;20480;-46
2022/06/03 09:31:36;;;;;;;11.68;5.15;;;;;;;22.74;53.50;101749.72;5038155;28;20087;-47
2022/06/03 09:34:03;;;;;;;10.65;5.72;;;;;;;22.95;51.76;101751.25;5037914;28;20044;-50
2022/06/03 09:36:32;;;;;;;14.85;5.22;;;;;;;23.13;48.88;101752.41;5037076;28;20021;-47
2022/06/03 09:39:01;;;;;;;8.82;3.80;;;;;;;23.13;44.24;101752.41;5037592;28;20478;-46
2022/06/03 09:41:30;;;;;;;5.68;3.65;;;;;;;23.19;46.77;101744.16;5037986;28;20103;-47
2022/06/03 09:43:58;;;;;;;9.05;4.10;;;;;;;23.34;44.79;101738.38;5038263;28;20100;-54
2022/06/03 09:46:29;;;;;;;8.35;4.53;;;;;;;23.51;44.30;101740.53;5037425;28;20017;-45
2022/06/03 09:48:55;;;;;;;5.72;3.78;;;;;;;23.70;48.18;101731.28;5020436;28;20468;-47
2022/06/03 09:54:39;;;;;;;8.32;3.78;;;;;;;23.72;43.82;101731.06;5018058;28;20052;-45
2022/06/03 09:57:24;;;;;;;5.00;3.42;;;;;;;23.67;42.18;101730.91;5036708;28;20525;-45
2022/06/03 10:00:03;;;;;;;16.55;3.17;;;;;;;23.73;43.96;101732.75;5037552;28;20025;-47
2022/06/03 10:02:31;;;;;;;7.55;3.35;;;;;;;23.85;41.82;101725.47;5012822;28;20055;-47
2022/06/03 10:05:00;;;;;;;10.43;3.38;;;;;;;23.95;42.51;101731.22;5035312;28;20455;-47
2022/06/03 10:07:26;;;;;;;6.78;3.60;;;;;;;23.78;39.78;101730.16;5036604;28;20056;-45
2022/06/03 10:12:59;;;;;;;4.35;2.88;;;;;;;24.18;40.58;101721.47;5012108;28;20059;-47
2022/06/03 10:15:42;;;;;;;7.35;3.30;;;;;;;24.37;43.52;101719.53;5037052;28;20037;-47
2022/06/03 10:18:20;;;;;;;4.53;2.70;;;;;;;24.55;40.79;101715.94;5037170;28;20075;-48
2022/06/03 10:20:46;;;;;;;5.32;3.00;;;;;;;24.61;39.88;101709.56;5036732;28;20447;-46
2022/06/03 10:23:12;;;;;;;5.05;2.60;;;;;;;24.77;40.03;101703.41;5037653;28;20027;-48
2022/06/03 10:25:40;;;;;;;7.60;2.90;;;;;;;24.82;37.09;101705.44;5036011;28;20117;-47
2022/06/03 10:28:08;;;;;;;5.57;2.50;;;;;;;24.84;36.14;101711.50;5027379;28;20099;-45
2022/06/03 10:30:36;;;;;;;6.18;2.60;;;;;;;24.84;34.81;101705.19;5037069;28;20076;-45
2022/06/03 10:33:03;;;;;;;4.88;2.40;;;;;;;24.81;34.84;101692.81;5036098;28;20033;-46
2022/06/03 10:35:34;;;;;;;6.53;2.22;;;;;;;24.81;36.25;101698.28;5037022;28;20033;-47
2022/06/03 10:38:03;;;;;;;5.10;2.85;;;;;;;24.77;35.29;101691.66;5035973;28;20420;-45
2022/06/03 10:40:29;;;;;;;3.53;2.92;;;;;;;24.83;36.26;101695.31;5037503;28;20491;-46
2022/06/03 10:43:00;;;;;;;5.82;2.90;;;;;;;24.79;36.90;101696.88;5036547;28;20031;-47
2022/06/03 10:45:37;;;;;;;2.80;2.60;;;;;;;24.66;36.32;101690.56;5036692;28;20447;-47
2022/06/03 10:48:25;;;;;;;7.80;2.53;;;;;;;24.72;37.59;101694.25;5034888;28;20369;-49
2022/06/03 10:50:51;;;;;;;5.43;2.83;;;;;;;24.79;36.58;101686.78;5036023;28;20304;-45
2022/06/03 11:01:51;;;;;;;7.90;2.33;;;;;;;25.28;35.82;101683.84;5036060;28;20165;-45
2022/06/03 11:04:27;;;;;;;7.35;2.50;;;;;;;25.50;36.66;101684.88;5036608;28;20108;-44
2022/06/03 11:06:52;;;;;;;5.55;3.33;;;;;;;25.52;34.48;101692.84;5035218;28;20101;-48
2022/06/03 11:09:19;;;;;;;4.53;3.20;;;;;;;25.38;35.22;101686.81;5036603;28;20342;-47
2022/06/03 11:12:05;;;;;;;6.93;2.72;;;;;;;25.47;37.60;101676.31;5036642;28;20036;-48
2022/06/03 11:14:34;;;;;;;7.38;2.47;;;;;;;25.34;35.11;101684.78;5034955;28;20045;-46
2022/06/03 11:17:31;;;;;;;5.88;2.85;;;;;;;25.27;35.40;101677.56;5015611;28;20022;-46
2022/06/03 11:19:58;;;;;;;3.67;3.30;;;;;;;25.53;35.23;101680.84;5024142;28;20044;-43
2022/06/03 11:22:26;;;;;;;5.97;4.00;;;;;;;25.71;35.35;101671.63;5034340;28;20028;-47
2022/06/03 11:25:15;;;;;;;7.93;3.60;;;;;;;25.57;37.26;101676.53;5036874;28;20036;-45
2022/06/03 11:27:43;;;;;;;7.47;3.03;;;;;;;25.53;36.33;101671.78;5026670;28;20143;-46
2022/06/03 11:30:48;;;;;;;7.70;2.85;;;;;;;25.52;37.20;101667.41;5035742;28;20460;-48
2022/06/03 11:33:19;;;;;;;4.88;2.60;;;;;;;25.53;35.43;101663.59;5020322;28;20391;-49
2022/06/03 11:35:50;;;;;;;4.38;2.45;;;;;;;25.72;36.38;101659.63;5035072;28;20142;-47
2022/06/03 11:38:31;;;;;;;;;;;;;;;25.92;34.63;101664.66;5035735;28;20589;-46
2022/06/03 11:41:02;;;;;;;5.47;2.35;;;;;;;25.68;35.52;101659.28;5036138;28;20485;-49
2022/06/03 11:43:42;;;;;;;6.97;2.55;;;;;;;25.50;34.30;101656.69;5035874;28;20013;-47
2022/06/03 11:46:13;;;;;;;5.05;2.40;;;;;;;25.57;35.19;101662.88;5033782;28;20057;-45
2022/06/03 11:48:42;;;;;;;3.53;2.90;;;;;;;25.73;33.42;101657.69;5028283;28;20434;-46
2022/06/03 11:51:10;;;;;;;7.85;2.72;;;;;;;25.83;34.38;101666.13;5034740;28;20093;-46
2022/06/03 11:53:40;;;;;;;2.60;2.40;;;;;;;26.09;36.93;101656.53;5035131;28;20029;-48
2022/06/03 11:56:10;;;;;;;6.05;2.28;;;;;;;26.35;34.53;101657.81;5034858;28;20100;-50
2022/06/03 11:59:12;;;;;;;3.75;2.10;;;;;;;26.61;31.79;101658.22;5035872;28;20464;-44
2022/06/03 12:01:49;;;;;;;3.88;1.83;;;;;;;26.78;31.34;101663.75;5035236;28;20072;-49
2022/06/03 12:04:23;;;;;;;4.63;2.00;;;;;;;26.64;30.51;101665.16;5036238;28;20294;-46
2022/06/03 12:07:10;;;;;;;8.77;2.10;;;;;;;26.67;31.80;101664.69;5021804;28;20558;-48
2022/06/03 12:09:45;;;;;;;5.57;2.10;;;;;;;26.65;30.82;101667.66;5035257;28;20323;-45
2022/06/03 12:15:27;;;;;;;2.58;1.90;;;;;;;26.49;32.76;101668.44;5039498;28;20126;-47
2022/06/03 12:17:52;;;;;;;4.72;1.70;;;;;;;26.50;32.24;101665.47;5037414;28;20024;-45
2022/06/03 12:20:30;;;;;;;2.80;1.70;;;;;;;26.52;31.98;101663.28;5038495;28;20051;-46
2022/06/03 12:22:55;;;;;;;3.72;2.00;;;;;;;26.16;29.48;101661.84;5036590;28;20432;-49
2022/06/03 12:25:32;;;;;;;2.20;2.00;;;;;;;26.28;32.01;101661.78;5038234;28;20123;-47
2022/06/03 12:28:02;;;;;;;4.72;1.90;;;;;;;26.45;31.29;101653.59;5037603;28;20073;-46
2022/06/03 12:30:45;;;;;;;8.02;1.88;;;;;;;26.71;33.22;101657.59;5039158;28;20024;-48
2022/06/03 12:33:34;;;;;;;4.60;2.08;;;;;;;26.85;31.74;101652.59;5037978;28;20029;-46
2022/06/03 12:36:05;;;;;;;3.88;1.80;;;;;;;27.02;31.63;101650.69;5037698;28;20032;-47
2022/06/03 12:38:51;;;;;;;8.55;2.17;;;;;;;27.13;29.99;101643.44;5038558;28;20450;-48
2022/06/03 12:41:45;;;;;;;3.63;2.00;;;;;;;27.30;30.54;101633.28;5006681;28;20518;-61
2022/06/03 12:44:23;;;;;;;10.27;2.03;;;;;;;27.48;31.77;101637.63;5038903;28;20483;-50
2022/06/03 12:46:48;;;;;;;3.97;2.00;;;;;;;27.68;31.08;101634.28;5038298;28;20068;-47
2022/06/03 12:49:37;;;;;;;5.95;1.80;;;;;;;27.97;31.23;101641.47;5027453;28;20340;-45